createdAt,value
2023-03-17T00:00:51.531Z,86.85
2023-03-17T00:01:51.682Z,87.23
2023-03-17T00:02:51.830Z,86.85
2023-03-17T00:03:51.953Z,86.56
2023-03-17T00:04:51.716Z,86.37
2023-03-17T00:05:51.698Z,85.61
2023-03-17T00:06:51.724Z,85.8
2023-03-17T00:07:51.673Z,85.9
2023-03-17T00:08:51.646Z,85.33
2023-03-17T00:09:51.352Z,85.05
2023-03-17T00:10:51.606Z,84.58
2023-03-17T00:11:51.701Z,84.2
2023-03-17T00:12:51.291Z,84.39
2023-03-17T00:13:51.278Z,84.39
2023-03-17T00:14:51.548Z,84.1
2023-03-17T00:15:51.573Z,84.1
2023-03-17T00:16:51.493Z,84.1
2023-03-17T00:17:51.194Z,84.58
2023-03-17T00:18:51.453Z,84.1
2023-03-17T00:19:51.418Z,84.39
2023-03-17T00:20:51.408Z,84.58
2023-03-17T00:21:51.377Z,84.48
2023-03-17T00:22:52.118Z,84.39
2023-03-17T00:23:52.142Z,83.91
2023-03-17T00:24:52.091Z,84.39
2023-03-17T00:25:52.081Z,83.63
2023-03-17T00:26:52.040Z,82.78
2023-03-17T00:27:52.025Z,83.44
2023-03-17T00:28:52.004Z,83.25
2023-03-17T00:29:51.998Z,82.87
2023-03-17T00:30:51.808Z,82.97
2023-03-17T00:31:51.979Z,82.97
2023-03-17T00:32:52.102Z,82.87
2023-03-17T00:33:51.914Z,83.06
2023-03-17T00:34:51.917Z,83.44
2023-03-17T00:35:51.910Z,83.53
2023-03-17T00:36:51.674Z,83.63
2023-03-17T00:37:51.834Z,84.2
2023-03-17T00:38:51.808Z,83.82
2023-03-17T00:39:51.809Z,83.82
2023-03-17T00:40:51.770Z,84.1
2023-03-17T00:41:51.768Z,84.29
2023-03-17T00:42:51.481Z,84.1
2023-03-17T00:43:51.740Z,84.1
2023-03-17T00:44:51.732Z,83.53
2023-03-17T00:45:51.427Z,83.34
2023-03-17T00:46:51.951Z,84.29
2023-03-17T00:47:51.673Z,83.82
2023-03-17T00:48:51.621Z,84.29
2023-03-17T00:49:51.359Z,83.53
2023-03-17T00:50:51.588Z,83.63
2023-03-17T00:51:51.560Z,83.44
2023-03-17T00:52:51.544Z,83.82
2023-03-17T00:53:51.544Z,83.15
2023-03-17T00:54:51.503Z,82.78
2023-03-17T00:55:51.485Z,82.87
2023-03-17T00:56:51.477Z,83.06
2023-03-17T00:57:51.213Z,83.06
2023-03-17T00:58:51.438Z,83.53
2023-03-17T00:59:51.426Z,83.67
2023-03-17T01:00:51.446Z,83.06
2023-03-17T01:01:51.658Z,83.01
2023-03-17T01:02:51.136Z,82.82
2023-03-17T01:03:51.370Z,82.06
2023-03-17T01:05:06.490Z,82.25
2023-03-17T01:05:51.293Z,82.53
2023-03-17T01:06:51.273Z,81.96
2023-03-17T01:07:51.267Z,82.72
2023-03-17T01:08:51.240Z,82.34
2023-03-17T01:09:51.241Z,81.96
2023-03-17T01:10:50.945Z,82.63
2023-03-17T01:11:51.020Z,82.06
2023-03-17T01:12:51.163Z,82.06
2023-03-17T01:13:51.164Z,82.06
2023-03-17T01:14:50.874Z,82.15
2023-03-17T01:15:51.125Z,81.68
2023-03-17T01:16:51.234Z,81.68
2023-03-17T01:17:51.066Z,82.34
2023-03-17T01:18:51.287Z,82.34
2023-03-17T01:19:51.086Z,82.15
2023-03-17T01:20:51.031Z,82.15
2023-03-17T01:21:50.998Z,81.49
2023-03-17T01:22:50.996Z,81.12
2023-03-17T01:23:50.722Z,81.02
2023-03-17T01:24:50.673Z,81.3
2023-03-17T01:25:50.927Z,81.49
2023-03-17T01:26:50.668Z,81.59
2023-03-17T01:27:50.892Z,81.4
2023-03-17T01:28:50.856Z,81.59
2023-03-17T01:29:50.836Z,81.68
2023-03-17T01:30:50.838Z,81.68
2023-03-17T01:31:50.921Z,81.59
2023-03-17T01:32:50.852Z,81.21
2023-03-17T01:33:50.779Z,80.93
2023-03-17T01:34:50.783Z,81.02
2023-03-17T01:35:50.903Z,81.12
2023-03-17T01:36:50.727Z,80.55
2023-03-17T01:37:50.439Z,80.74
2023-03-17T01:38:50.745Z,80.55
2023-03-17T01:39:50.654Z,80.45
2023-03-17T01:40:50.647Z,80.45
2023-03-17T01:41:50.610Z,80.26
2023-03-17T01:42:50.609Z,80.26
2023-03-17T01:43:50.588Z,80.07
2023-03-17T01:44:50.571Z,80.26
2023-03-17T01:45:50.618Z,79.88
2023-03-17T01:46:50.525Z,79.69
2023-03-17T01:47:50.505Z,80.07
2023-03-17T01:48:50.246Z,80.36
2023-03-17T01:49:50.214Z,80.64
2023-03-17T01:50:50.243Z,80.55
2023-03-17T01:51:50.627Z,80.45
2023-03-17T01:52:50.404Z,80.55
2023-03-17T01:53:50.388Z,80.55
2023-03-17T01:54:50.373Z,80.55
2023-03-17T01:55:50.347Z,80.45
2023-03-17T01:56:50.090Z,80.55
2023-03-17T01:57:50.308Z,80.26
2023-03-17T01:58:50.296Z,80.07
2023-03-17T01:59:50.293Z,80.07
2023-03-17T02:00:50.073Z,80.36
2023-03-17T02:01:50.242Z,80.45
2023-03-17T02:02:50.279Z,80.17
2023-03-17T02:03:50.317Z,79.41
2023-03-17T02:04:50.194Z,79.13
2023-03-17T02:05:50.159Z,79.03
2023-03-17T02:07:00.013Z,78.94
2023-03-17T02:07:50.164Z,78.56
2023-03-17T02:08:50.105Z,79.22
2023-03-17T02:09:50.091Z,78.65
2023-03-17T02:10:50.064Z,78.94
2023-03-17T02:11:49.794Z,78.37
2023-03-17T02:12:49.771Z,78.46
2023-03-17T02:13:50.009Z,78.08
2023-03-17T02:14:50.008Z,77.42
2023-03-17T02:15:49.973Z,77.23
2023-03-17T02:16:49.804Z,77.04
2023-03-17T02:17:49.937Z,77.04
2023-03-17T02:18:49.910Z,77.23
2023-03-17T02:19:49.912Z,77.61
2023-03-17T02:20:49.893Z,77.33
2023-03-17T02:21:49.860Z,76.95
2023-03-17T02:22:49.625Z,77.14
2023-03-17T02:23:49.846Z,77.04
2023-03-17T02:24:49.540Z,77.14
2023-03-17T02:25:49.778Z,77.8
2023-03-17T02:26:49.756Z,77.33
2023-03-17T02:27:49.491Z,76.95
2023-03-17T02:28:49.473Z,76.57
2023-03-17T02:29:49.709Z,75.72
2023-03-17T02:30:49.849Z,75.53
2023-03-17T02:31:49.689Z,75.34
2023-03-17T02:32:49.769Z,75.05
2023-03-17T02:33:49.631Z,75.53
2023-03-17T02:34:49.382Z,76.1
2023-03-17T02:35:49.621Z,76.38
2023-03-17T02:36:49.651Z,76.1
2023-03-17T02:37:49.315Z,75.91
2023-03-17T02:38:49.563Z,75.62
2023-03-17T02:39:49.550Z,74.87
2023-03-17T02:40:49.514Z,75.15
2023-03-17T02:41:49.492Z,74.77
2023-03-17T02:42:49.251Z,73.64
2023-03-17T02:43:49.443Z,73.54
2023-03-17T02:44:49.425Z,73.92
2023-03-17T02:45:49.322Z,73.45
2023-03-17T02:46:49.418Z,73.54
2023-03-17T02:47:49.381Z,73.26
2023-03-17T02:48:49.095Z,73.07
2023-03-17T02:49:49.084Z,73.07
2023-03-17T02:50:49.319Z,73.26
2023-03-17T02:51:49.288Z,72.97
2023-03-17T02:52:49.281Z,72.97
2023-03-17T02:53:49.262Z,73.07
2023-03-17T02:54:49.037Z,73.54
2023-03-17T02:55:49.282Z,73.35
2023-03-17T02:56:49.247Z,72.97
2023-03-17T02:57:48.966Z,72.78
2023-03-17T02:58:49.200Z,72.78
2023-03-17T02:59:49.168Z,72.78
2023-03-17T03:00:49.165Z,72.78
2023-03-17T03:01:49.246Z,73.26
2023-03-17T03:02:49.226Z,73.16
2023-03-17T03:03:49.109Z,72.78
2023-03-17T03:04:49.094Z,73.07
2023-03-17T03:05:48.795Z,73.45
2023-03-17T03:06:48.783Z,73.07
2023-03-17T03:07:48.769Z,72.5
2023-03-17T03:08:48.749Z,72.6
2023-03-17T03:09:49.001Z,72.69
2023-03-17T03:10:48.996Z,72.22
2023-03-17T03:11:49.031Z,72.97
2023-03-17T03:12:48.932Z,72.69
2023-03-17T03:13:48.912Z,73.26
2023-03-17T03:14:48.889Z,73.07
2023-03-17T03:15:48.976Z,73.07
2023-03-17T03:16:48.881Z,72.41
2023-03-17T03:17:48.845Z,72.88
2023-03-17T03:18:48.833Z,73.35
2023-03-17T03:19:48.541Z,73.26
2023-03-17T03:20:48.790Z,73.35
2023-03-17T03:21:48.635Z,73.16
2023-03-17T03:22:48.746Z,73.16
2023-03-17T03:23:48.751Z,73.26
2023-03-17T03:24:48.738Z,73.07
2023-03-17T03:25:48.735Z,73.26
2023-03-17T03:26:48.717Z,73.26
2023-03-17T03:27:48.684Z,72.97
2023-03-17T03:28:48.623Z,72.97
2023-03-17T03:29:48.628Z,73.26
2023-03-17T03:30:48.438Z,73.16
2023-03-17T03:31:48.375Z,73.16
2023-03-17T03:32:48.609Z,73.16
2023-03-17T03:33:48.538Z,73.07
2023-03-17T03:34:48.538Z,73.26
2023-03-17T03:35:48.572Z,73.26
2023-03-17T03:36:48.493Z,72.78
2023-03-17T03:37:48.218Z,73.26
2023-03-17T03:38:48.451Z,72.97
2023-03-17T03:39:48.424Z,72.97
2023-03-17T03:40:48.416Z,72.78
2023-03-17T03:41:48.130Z,72.88
2023-03-17T03:42:48.514Z,73.26
2023-03-17T03:43:48.375Z,72.88
2023-03-17T03:44:48.345Z,72.97
2023-03-17T03:45:48.322Z,72.97
2023-03-17T03:46:48.466Z,72.78
2023-03-17T03:47:48.277Z,73.73
2023-03-17T03:48:48.278Z,73.83
2023-03-17T03:49:48.241Z,73.45
2023-03-17T03:50:47.952Z,73.54
2023-03-17T03:51:48.217Z,73.64
2023-03-17T03:52:47.925Z,73.64
2023-03-17T03:53:48.182Z,73.45
2023-03-17T03:54:48.155Z,73.26
2023-03-17T03:55:48.122Z,73.26
2023-03-17T03:56:48.104Z,72.78
2023-03-17T03:57:47.825Z,72.69
2023-03-17T03:58:48.068Z,72.22
2023-03-17T03:59:48.073Z,72.03
2023-03-17T04:00:48.041Z,72.22
2023-03-17T04:01:48.061Z,72.22
2023-03-17T04:02:47.819Z,72.41
2023-03-17T04:03:47.976Z,72.31
2023-03-17T04:04:47.748Z,72.22
2023-03-17T04:05:47.939Z,71.74
2023-03-17T04:06:47.676Z,71.93
2023-03-17T04:07:47.920Z,72.12
2023-03-17T04:08:47.915Z,72.41
2023-03-17T04:09:47.859Z,72.5
2023-03-17T04:10:47.838Z,72.78
2023-03-17T04:11:47.825Z,72.69
2023-03-17T04:12:47.807Z,72.31
2023-03-17T04:13:47.537Z,71.27
2023-03-17T04:14:47.801Z,71.27
2023-03-17T04:15:47.990Z,71.65
2023-03-17T04:16:47.731Z,71.93
2023-03-17T04:17:47.711Z,72.03
2023-03-17T04:18:47.559Z,71.74
2023-03-17T04:19:47.424Z,72.22
2023-03-17T04:20:47.677Z,72.31
2023-03-17T04:21:47.638Z,72.31
2023-03-17T04:22:47.672Z,72.69
2023-03-17T04:23:47.614Z,72.31
2023-03-17T04:24:47.326Z,72.41
2023-03-17T04:25:47.313Z,73.07
2023-03-17T04:26:47.303Z,72.88
2023-03-17T04:27:47.530Z,73.64
2023-03-17T04:28:47.513Z,73.83
2023-03-17T04:46:11.556Z,74.55
2023-03-17T04:47:11.337Z,74.45
2023-03-17T04:48:11.331Z,73.69
2023-03-17T04:49:11.289Z,73.5
2023-03-17T04:50:11.374Z,73.79
2023-03-17T04:51:14.057Z,73.69
2023-03-17T04:52:11.240Z,74.07
2023-03-17T04:53:10.976Z,74.26
2023-03-17T04:54:11.256Z,74.26
2023-03-17T04:55:10.945Z,74.45
2023-03-17T04:56:10.892Z,74.55
2023-03-17T04:57:10.895Z,73.88
2023-03-17T04:58:28.080Z,73.88
2023-03-17T04:59:11.096Z,73.5
2023-03-17T05:00:11.090Z,73.6
2023-03-17T05:01:11.178Z,73.41
2023-03-17T05:02:11.189Z,72.94
2023-03-17T05:03:28.921Z,73.03
2023-03-17T05:04:25.341Z,73.41
2023-03-17T05:05:11.728Z,73.13
2023-03-17T05:06:11.720Z,73.6
2023-03-17T05:07:11.702Z,73.5
2023-03-17T05:08:11.660Z,73.5
2023-03-17T05:09:11.642Z,73.32
2023-03-17T05:10:11.647Z,73.13
2023-03-17T05:11:11.355Z,73.03
2023-03-17T05:12:11.332Z,73.32
2023-03-17T05:13:11.561Z,72.94
2023-03-17T05:14:11.569Z,72.85
2023-03-17T05:15:11.323Z,72.75
2023-03-17T05:16:11.698Z,73.13
2023-03-17T05:17:11.508Z,73.13
2023-03-17T05:18:11.528Z,72.94
2023-03-17T05:19:11.456Z,72.85
2023-03-17T05:20:11.184Z,72.85
2023-03-17T05:21:11.159Z,72.85
2023-03-17T05:22:11.391Z,73.03
2023-03-17T05:23:11.389Z,72.75
2023-03-17T05:24:11.356Z,73.22
2023-03-17T05:25:12.107Z,72.75
2023-03-17T05:26:11.875Z,73.03
2023-03-17T05:27:11.963Z,72.85
2023-03-17T05:28:12.078Z,73.03
2023-03-17T05:29:12.031Z,72.75
2023-03-17T05:30:12.026Z,73.32
2023-03-17T05:31:13.675Z,73.13
2023-03-17T05:32:12.101Z,73.22
2023-03-17T05:33:11.958Z,72.75
2023-03-17T05:34:11.992Z,72.56
2023-03-17T05:35:11.915Z,72.41
2023-03-17T05:36:11.985Z,71.74
2023-03-17T05:37:11.808Z,71.65
2023-03-17T05:38:11.607Z,71.65
2023-03-17T05:39:14.047Z,71.93
2023-03-17T05:40:11.821Z,72.03
2023-03-17T05:41:11.807Z,71.84
2023-03-17T05:42:11.538Z,71.27
2023-03-17T05:43:11.801Z,71.55
2023-03-17T05:44:11.766Z,71.93
2023-03-17T05:45:11.733Z,72.31
2023-03-17T05:46:11.986Z,72.41
2023-03-17T05:47:11.692Z,72.41
2023-03-17T05:48:11.690Z,71.55
2023-03-17T05:49:11.399Z,71.93
2023-03-17T05:50:11.685Z,71.55
2023-03-17T05:51:11.367Z,72.22
2023-03-17T05:52:11.335Z,71.46
2023-03-17T05:53:11.579Z,71.65
2023-03-17T05:54:11.294Z,72.31
2023-03-17T05:55:11.538Z,72.97
2023-03-17T05:56:11.519Z,72.69
2023-03-17T05:57:11.247Z,72.69
2023-03-17T05:58:11.481Z,72.78
2023-03-17T05:59:11.205Z,73.22
2023-03-17T06:00:13.086Z,73.07
2023-03-17T06:01:11.481Z,72.78
2023-03-17T06:02:11.333Z,72.88
2023-03-17T06:03:11.511Z,73.07
2023-03-17T06:04:11.370Z,73.26
2023-03-17T06:05:11.384Z,73.16
2023-03-17T06:06:11.379Z,72.6
2023-03-17T06:07:11.312Z,72.69
2023-03-17T06:08:11.311Z,72.88
2023-03-17T06:09:11.036Z,72.88
2023-03-17T06:10:11.269Z,72.41
2023-03-17T06:11:10.989Z,72.5
2023-03-17T06:12:11.007Z,72.69
2023-03-17T06:13:10.952Z,72.12
2023-03-17T06:14:11.188Z,72.5
2023-03-17T06:15:10.913Z,72.5
2023-03-17T06:16:11.111Z,72.12
2023-03-17T06:17:10.874Z,71.74
2023-03-17T06:18:11.135Z,71.74
2023-03-17T06:19:10.853Z,71.08
2023-03-17T06:20:10.824Z,71.36
2023-03-17T06:21:11.052Z,71.17
2023-03-17T06:22:11.079Z,71.46
2023-03-17T06:23:10.754Z,71.17
2023-03-17T06:24:10.985Z,70.98
2023-03-17T06:25:10.732Z,70.7
2023-03-17T06:26:10.960Z,70.7
2023-03-17T06:27:10.934Z,70.61
2023-03-17T06:28:11.854Z,70.79
2023-03-17T06:29:11.614Z,70.14
2023-03-17T06:30:11.819Z,69.95
2023-03-17T06:31:11.972Z,70.04
2023-03-17T06:32:22.715Z,69.57
2023-03-17T06:33:11.707Z,69.7
2023-03-17T06:34:11.750Z,69.47
2023-03-17T06:35:11.489Z,69.76
2023-03-17T06:36:11.595Z,69.76
2023-03-17T06:37:11.682Z,70.23
2023-03-17T06:38:11.719Z,70.42
2023-03-17T06:39:11.658Z,69.47
2023-03-17T06:40:11.430Z,69.57
2023-03-17T06:41:11.610Z,69.7
2023-03-17T06:42:11.680Z,69.51
2023-03-17T06:43:11.576Z,68.9
2023-03-17T06:44:11.558Z,68.81
2023-03-17T06:45:11.280Z,68.75
2023-03-17T06:46:11.382Z,68.46
2023-03-17T06:47:11.504Z,69.03
2023-03-17T06:48:11.498Z,68.65
2023-03-17T06:49:11.467Z,67.71
2023-03-17T06:50:11.453Z,67.33
2023-03-17T06:51:11.180Z,67.05
2023-03-17T06:52:11.405Z,67.43
2023-03-17T06:53:11.132Z,67.8
2023-03-17T06:54:11.414Z,67.71
2023-03-17T06:55:11.103Z,67.33
2023-03-17T06:56:30.014Z,66.95
2023-03-17T06:57:11.319Z,67.33
2023-03-17T06:58:11.302Z,67.05
2023-03-17T06:59:11.279Z,67.05
2023-03-17T07:00:11.356Z,67.05
2023-03-17T07:01:11.246Z,67.33
2023-03-17T07:02:11.479Z,67.05
2023-03-17T07:03:10.947Z,66.47
2023-03-17T07:04:11.301Z,66.47
2023-03-17T07:05:11.197Z,66.03
2023-03-17T07:06:11.165Z,66.13
2023-03-17T07:07:10.893Z,65.66
2023-03-17T07:08:11.124Z,65.47
2023-03-17T07:09:11.097Z,65.37
2023-03-17T07:10:11.143Z,65
2023-03-17T07:11:11.087Z,65.56
2023-03-17T07:12:11.172Z,65.09
2023-03-17T07:13:11.016Z,64.81
2023-03-17T07:14:11.041Z,64.55
2023-03-17T07:15:10.994Z,64.65
2023-03-17T07:16:10.798Z,64.84
2023-03-17T07:17:11.054Z,64.17
2023-03-17T07:18:10.945Z,63.79
2023-03-17T07:19:10.677Z,63.6
2023-03-17T07:20:10.684Z,63.13
2023-03-17T07:21:10.910Z,63.6
2023-03-17T07:22:10.958Z,62.94
2023-03-17T07:23:10.845Z,63.42
2023-03-17T07:24:10.581Z,63.04
2023-03-17T07:25:10.832Z,63.6
2023-03-17T07:26:10.888Z,62.37
2023-03-17T07:27:10.787Z,62.47
2023-03-17T07:28:10.786Z,62.28
2023-03-17T07:29:10.761Z,62.37
2023-03-17T07:30:10.763Z,62.37
2023-03-17T07:31:10.886Z,61.9
2023-03-17T07:32:10.735Z,60.86
2023-03-17T07:33:11.119Z,60.19
2023-03-17T07:34:10.877Z,59.91
2023-03-17T07:35:10.874Z,60.28
2023-03-17T07:36:11.066Z,59.72
2023-03-17T07:37:10.914Z,59.44
2023-03-17T07:38:10.582Z,60
2023-03-17T07:39:13.867Z,59.91
2023-03-17T07:40:10.776Z,60.1
2023-03-17T07:41:10.752Z,59.94
2023-03-17T07:42:10.793Z,60.57
2023-03-17T07:43:10.726Z,60.67
2023-03-17T07:44:10.770Z,60.6
2023-03-17T07:45:10.681Z,60.22
2023-03-17T07:46:10.649Z,60.28
2023-03-17T07:47:10.560Z,60.41
2023-03-17T07:48:10.410Z,59.56
2023-03-17T07:49:10.637Z,59.66
2023-03-17T07:50:10.341Z,59.66
2023-03-17T07:51:10.383Z,59.37
2023-03-17T07:52:10.633Z,59.75
2023-03-17T07:53:10.578Z,59.75
2023-03-17T07:54:10.541Z,59.94
2023-03-17T07:55:10.975Z,60.03
2023-03-17T07:56:11.144Z,60.31
2023-03-17T07:57:10.856Z,60.13
2023-03-17T07:58:12.596Z,60.31
2023-03-17T07:59:11.137Z,60.22
2023-03-17T08:00:11.071Z,59.94
2023-03-17T08:01:11.105Z,60.13
2023-03-17T08:02:11.217Z,60.13
2023-03-17T08:03:13.114Z,60.22
2023-03-17T08:04:11.149Z,59.94
2023-03-17T08:05:10.985Z,59.66
2023-03-17T08:06:11.140Z,59.46
2023-03-17T08:07:10.978Z,60.06
2023-03-17T08:08:10.973Z,59.94
2023-03-17T08:09:10.705Z,59.88
2023-03-17T08:10:10.665Z,59.4
2023-03-17T08:11:10.883Z,58.83
2023-03-17T08:12:10.622Z,58.73
2023-03-17T08:13:10.847Z,58.54
2023-03-17T08:14:10.881Z,58.54
2023-03-17T08:15:10.825Z,58.64
2023-03-17T08:16:10.598Z,58.29
2023-03-17T08:17:10.928Z,58.29
2023-03-17T08:18:10.835Z,58
2023-03-17T08:19:10.806Z,57.43
2023-03-17T08:20:10.798Z,57.24
2023-03-17T08:21:10.577Z,56.49
2023-03-17T08:22:10.770Z,56.2
2023-03-17T08:23:10.709Z,55.63
2023-03-17T08:24:10.789Z,55.66
2023-03-17T08:25:10.403Z,56.13
2023-03-17T08:26:10.735Z,55.57
2023-03-17T08:27:10.634Z,55.57
2023-03-17T08:28:10.368Z,55.18
2023-03-17T08:29:10.651Z,55.47
2023-03-17T08:30:10.646Z,55.47
2023-03-17T08:31:13.778Z,55.18
2023-03-17T08:32:10.571Z,55.09
2023-03-17T08:33:10.560Z,54.99
2023-03-17T08:34:10.530Z,54.43
2023-03-17T08:35:10.537Z,53.88
2023-03-17T08:36:10.494Z,53.5
2023-03-17T08:37:13.709Z,53.69
2023-03-17T08:38:10.454Z,53.03
2023-03-17T08:39:10.193Z,53.5
2023-03-17T08:40:10.452Z,53.5
2023-03-17T08:41:10.459Z,52.84
2023-03-17T08:42:10.403Z,52.55
2023-03-17T08:43:10.396Z,52.55
2023-03-17T08:44:10.378Z,52.36
2023-03-17T08:45:10.125Z,52.55
2023-03-17T08:46:10.640Z,52.36
2023-03-17T08:47:10.346Z,52.36
2023-03-17T08:48:10.412Z,52.2
2023-03-17T08:49:10.305Z,52.55
2023-03-17T08:50:10.382Z,52.39
2023-03-17T08:51:10.275Z,51.53
2023-03-17T08:52:10.268Z,51.15
2023-03-17T08:53:09.995Z,49.25
2023-03-17T08:54:10.279Z,48.77
2023-03-17T08:55:10.210Z,48.87
2023-03-17T08:56:10.196Z,49.06
2023-03-17T08:57:10.213Z,48.39
2023-03-17T08:58:10.169Z,47.44
2023-03-17T08:59:10.182Z,47.82
2023-03-17T09:00:09.898Z,46.97
2023-03-17T09:01:10.269Z,46.78
2023-03-17T09:02:10.270Z,47.25
2023-03-17T09:03:10.100Z,47.54
2023-03-17T09:04:10.100Z,46.88
2023-03-17T09:05:10.100Z,46.68
2023-03-17T09:06:09.911Z,46.97
2023-03-17T09:07:12.065Z,47.92
2023-03-17T09:08:10.206Z,47.73
2023-03-17T09:09:10.016Z,48.11
2023-03-17T09:10:09.993Z,48.21
2023-03-17T09:11:09.732Z,47.63
2023-03-17T09:12:10.047Z,46.97
2023-03-17T09:13:09.955Z,46.88
2023-03-17T09:14:09.944Z,46.3
2023-03-17T09:15:09.745Z,46.3
2023-03-17T09:16:09.925Z,46.49
2023-03-17T09:17:09.965Z,46.23
2023-03-17T09:18:09.936Z,45.95
2023-03-17T09:19:09.879Z,45.85
2023-03-17T09:20:09.598Z,45.66
2023-03-17T09:21:09.852Z,45.37
2023-03-17T09:22:10.030Z,45.66
2023-03-17T09:23:09.825Z,45.95
2023-03-17T09:24:09.846Z,45.56
2023-03-17T09:25:09.539Z,44.9
2023-03-17T09:26:09.572Z,43.95
2023-03-17T09:27:09.855Z,44.04
2023-03-17T09:28:09.739Z,44.06
2023-03-17T09:29:09.491Z,44.35
2023-03-17T09:30:09.465Z,43.68
2023-03-17T09:31:09.480Z,43.78
2023-03-17T09:32:09.823Z,43.78
2023-03-17T09:33:09.482Z,43.78
2023-03-17T09:34:09.712Z,42.83
2023-03-17T09:35:09.426Z,43.11
2023-03-17T09:36:09.556Z,43.11
2023-03-17T09:37:09.633Z,43.49
2023-03-17T09:38:09.603Z,43.49
2023-03-17T09:39:09.339Z,43.11
2023-03-17T09:40:09.585Z,42.92
2023-03-17T09:41:09.308Z,42.47
2023-03-17T09:42:09.634Z,41.97
2023-03-17T09:43:10.446Z,42.54
2023-03-17T09:44:10.427Z,42.16
2023-03-17T09:45:10.408Z,42.56
2023-03-17T09:46:10.513Z,43.23
2023-03-17T09:47:10.379Z,43.51
2023-03-17T09:48:10.128Z,43.61
2023-03-17T09:49:10.431Z,44.09
2023-03-17T09:50:10.389Z,43.42
2023-03-17T09:51:10.380Z,43.51
2023-03-17T09:52:10.056Z,43.32
2023-03-17T09:53:10.299Z,43.51
2023-03-17T09:54:10.039Z,43.61
2023-03-17T09:55:10.017Z,43.73
2023-03-17T09:56:10.272Z,43.63
2023-03-17T09:57:10.255Z,44.2
2023-03-17T09:58:09.984Z,43.54
2023-03-17T09:59:10.335Z,42.49
2023-03-17T10:00:10.032Z,42.77
2023-03-17T10:01:10.204Z,43.25
2023-03-17T10:02:10.317Z,43.54
2023-03-17T10:03:10.177Z,43.44
2023-03-17T10:04:10.458Z,43.18
2023-03-17T10:05:10.533Z,43.08
2023-03-17T10:06:13.188Z,43.56
2023-03-17T10:07:10.422Z,44.04
2023-03-17T10:08:31.848Z,43.56
2023-03-17T10:09:10.384Z,43.56
2023-03-17T10:10:10.116Z,42.89
2023-03-17T10:11:10.371Z,43.18
2023-03-17T10:12:10.351Z,43.46
2023-03-17T10:13:10.371Z,43.65
2023-03-17T10:14:10.332Z,43.37
2023-03-17T10:15:10.314Z,42.51
2023-03-17T10:16:10.477Z,41.84
2023-03-17T10:17:10.295Z,41.36
2023-03-17T10:18:10.284Z,41.27
2023-03-17T10:19:10.012Z,41.16
2023-03-17T10:20:10.295Z,40.68
2023-03-17T10:21:10.258Z,41.44
2023-03-17T10:22:10.278Z,42.03
2023-03-17T10:23:10.223Z,42.11
2023-03-17T10:24:10.098Z,43.25
2023-03-17T10:25:09.934Z,43.46
2023-03-17T10:26:10.182Z,43.44
2023-03-17T10:27:10.166Z,42.22
2023-03-17T10:28:11.567Z,41.25
2023-03-17T10:29:10.141Z,42.2
2023-03-17T10:30:10.132Z,42.68
2023-03-17T10:31:10.208Z,43.16
2023-03-17T10:32:10.106Z,43.25
2023-03-17T10:33:10.002Z,42.4
2023-03-17T10:34:10.086Z,42.2
2023-03-17T10:35:10.082Z,42.77
2023-03-17T10:36:10.216Z,42.6
2023-03-17T10:37:10.076Z,42.51
2023-03-17T10:38:16.991Z,42.41
2023-03-17T10:39:10.022Z,42.7
2023-03-17T10:40:10.016Z,43.27
2023-03-17T10:41:10.014Z,43.46
2023-03-17T10:42:09.991Z,43.39
2023-03-17T10:43:09.969Z,41.94
2023-03-17T10:44:09.957Z,42.03
2023-03-17T10:45:09.688Z,41.56
2023-03-17T10:46:10.000Z,41.56
2023-03-17T10:47:09.816Z,41.75
2023-03-17T10:48:09.914Z,42.44
2023-03-17T10:49:09.896Z,42.91
2023-03-17T10:50:09.882Z,43.39
2023-03-17T10:51:09.917Z,43.49
2023-03-17T10:52:09.870Z,43.1
2023-03-17T10:53:09.864Z,42.91
2023-03-17T10:54:09.892Z,43.58
2023-03-17T10:55:09.841Z,44.25
2023-03-17T10:56:10.007Z,44.63
2023-03-17T10:57:09.839Z,43.87
2023-03-17T10:58:09.794Z,43.77
2023-03-17T10:59:09.633Z,43.39
2023-03-17T11:00:09.779Z,43.6
2023-03-17T11:01:09.836Z,43.7
2023-03-17T11:02:09.755Z,44.17
2023-03-17T11:03:09.507Z,43.89
2023-03-17T11:04:09.798Z,43.51
2023-03-17T11:05:09.722Z,43.41
2023-03-17T11:06:09.450Z,42.93
2023-03-17T11:07:09.712Z,42.72
2023-03-17T11:08:09.425Z,42.74
2023-03-17T11:09:09.679Z,42.72
2023-03-17T11:10:09.710Z,43.01
2023-03-17T11:11:09.650Z,43.49
2023-03-17T11:12:09.649Z,43.58
2023-03-17T11:13:09.382Z,43.2
2023-03-17T11:14:09.633Z,43.2
2023-03-17T11:15:09.602Z,43.39
2023-03-17T11:16:09.738Z,43.29
2023-03-17T11:17:09.589Z,43.39
2023-03-17T11:18:09.573Z,43.39
2023-03-17T11:19:09.328Z,43.2
2023-03-17T11:20:09.308Z,43.68
2023-03-17T11:21:09.540Z,44.15
2023-03-17T11:22:09.546Z,43.77
2023-03-17T11:23:09.524Z,43.58
2023-03-17T11:24:09.516Z,43.89
2023-03-17T11:25:09.549Z,44.08
2023-03-17T11:26:09.537Z,43.6
2023-03-17T11:27:09.494Z,43.98
2023-03-17T11:28:09.334Z,44.08
2023-03-17T11:29:09.470Z,43.91
2023-03-17T11:30:09.439Z,43.53
2023-03-17T11:31:09.444Z,43.33
2023-03-17T11:32:09.267Z,42.57
2023-03-17T11:33:09.668Z,42
2023-03-17T11:34:09.416Z,42
2023-03-17T11:35:09.389Z,41.43
2023-03-17T11:36:09.273Z,41.05
2023-03-17T11:37:09.362Z,40.95
2023-03-17T11:38:09.101Z,40
2023-03-17T11:39:09.348Z,39.32
2023-03-17T11:40:09.333Z,39.9
2023-03-17T11:41:09.341Z,39.81
2023-03-17T11:42:09.406Z,40.17
2023-03-17T11:43:09.052Z,40.55
2023-03-17T11:44:09.323Z,40.45
2023-03-17T11:45:09.288Z,40.93
2023-03-17T11:46:09.389Z,41.12
2023-03-17T11:47:09.266Z,41.12
2023-03-17T11:48:09.260Z,41.22
2023-03-17T11:49:08.999Z,41.05
2023-03-17T11:50:08.966Z,42
2023-03-17T11:51:09.225Z,41.71
2023-03-17T11:52:08.954Z,41.43
2023-03-17T11:53:09.196Z,41.24
2023-03-17T11:54:09.187Z,41.14
2023-03-17T11:55:08.916Z,41.33
2023-03-17T11:56:09.171Z,41.33
2023-03-17T11:57:09.149Z,41.43
2023-03-17T11:58:09.259Z,41.52
2023-03-17T11:59:09.143Z,41.14
2023-03-17T12:00:09.121Z,41.71
2023-03-17T12:01:09.283Z,41.05
2023-03-17T12:02:09.127Z,41.24
2023-03-17T12:03:09.182Z,41.05
2023-03-17T12:04:09.343Z,41.33
2023-03-17T12:05:09.079Z,42.19
2023-03-17T12:06:08.809Z,42.38
2023-03-17T12:07:09.059Z,42.67
2023-03-17T12:08:09.047Z,42.38
2023-03-17T12:09:09.033Z,42.38
2023-03-17T12:10:09.021Z,41.91
2023-03-17T12:11:09.014Z,41.62
2023-03-17T12:12:08.762Z,41.52
2023-03-17T12:13:09.730Z,41.71
2023-03-17T12:14:09.794Z,41.43
2023-03-17T12:15:09.442Z,42.1
2023-03-17T12:16:09.800Z,42.48
2023-03-17T12:17:09.698Z,42.48
2023-03-17T12:18:09.687Z,42.38
2023-03-17T12:19:09.661Z,42.67
2023-03-17T12:20:09.404Z,42.6
2023-03-17T12:21:09.645Z,41.83
2023-03-17T12:22:09.628Z,41.91
2023-03-17T12:23:09.675Z,42
2023-03-17T12:24:09.364Z,41.33
2023-03-17T12:25:09.603Z,40.95
2023-03-17T12:26:09.600Z,41.33
2023-03-17T12:27:09.329Z,40.95
2023-03-17T12:28:09.324Z,41.14
2023-03-17T12:29:09.563Z,41.24
2023-03-17T12:30:09.594Z,42.1
2023-03-17T12:31:09.740Z,42.1
2023-03-17T12:32:09.524Z,42.1
2023-03-17T12:33:09.805Z,42
2023-03-17T12:34:09.567Z,42.36
2023-03-17T12:35:09.500Z,42.46
2023-03-17T12:36:09.648Z,42.55
2023-03-17T12:37:09.221Z,42.65
2023-03-17T12:38:09.522Z,42.17
2023-03-17T12:39:09.463Z,42.08
2023-03-17T12:40:09.495Z,42.36
2023-03-17T12:41:09.441Z,42.55
2023-03-17T12:42:09.186Z,42.74
2023-03-17T12:43:09.428Z,44.25
2023-03-17T12:44:09.424Z,43.58
2023-03-17T12:45:09.150Z,43.58
2023-03-17T12:46:09.611Z,43.87
2023-03-17T12:47:09.390Z,43.77
2023-03-17T12:48:09.376Z,43.87
2023-03-17T12:49:09.102Z,44.25
2023-03-17T12:50:09.403Z,44.82
2023-03-17T12:51:09.342Z,45.01
2023-03-17T12:52:09.338Z,45.29
2023-03-17T12:53:09.318Z,45.78
2023-03-17T12:54:09.052Z,45.97
2023-03-17T12:55:09.301Z,45.97
2023-03-17T12:56:09.362Z,46.15
2023-03-17T12:57:09.295Z,47.3
2023-03-17T12:58:09.267Z,46.92
2023-03-17T12:59:09.258Z,46.63
2023-03-17T13:00:09.247Z,46.54
2023-03-17T13:01:09.316Z,47.2
2023-03-17T13:02:09.273Z,46.92
2023-03-17T13:03:09.376Z,47.2
2023-03-17T13:04:08.949Z,47.02
2023-03-17T13:05:09.215Z,46.92
2023-03-17T13:06:09.178Z,47.11
2023-03-17T13:07:09.175Z,46.15
2023-03-17T13:08:09.154Z,47.02
2023-03-17T13:09:08.900Z,47.03
2023-03-17T13:10:09.141Z,47.32
2023-03-17T13:11:09.130Z,46.94
2023-03-17T13:12:08.871Z,47.32